sensor_id;sensor_type;location;lat;lon;timestamp;P1;durP1;ratioP1;P2;durP2;ratioP2
80536;SDS011;69867;47.074;15.404;2024-02-16T00:01:28;8.07;;;3.25;;
80536;SDS011;69867;47.074;15.404;2024-02-16T00:03:53;6.95;;;2.72;;
80536;SDS011;69867;47.074;15.404;2024-02-16T00:06:19;5.03;;;3.17;;
80536;SDS011;69867;47.074;15.404;2024-02-16T00:08:44;7.90;;;3.00;;
80536;SDS011;69867;47.074;15.404;2024-02-16T00:11:09;5.70;;;2.78;;
80536;SDS011;69867;47.074;15.404;2024-02-16T00:13:35;7.00;;;3.40;;
80536;SDS011;69867;47.074;15.404;2024-02-16T00:16:00;6.40;;;2.92;;
80536;SDS011;69867;47.074;15.404;2024-02-16T00:18:25;5.88;;;2.72;;
80536;SDS011;69867;47.074;15.404;2024-02-16T00:20:51;8.15;;;3.00;;
80536;SDS011;69867;47.074;15.404;2024-02-16T00:23:16;6.00;;;2.92;;
80536;SDS011;69867;47.074;15.404;2024-02-16T00:25:41;8.00;;;2.92;;
80536;SDS011;69867;47.074;15.404;2024-02-16T00:28:07;10.05;;;3.45;;
80536;SDS011;69867;47.074;15.404;2024-02-16T00:30:33;8.07;;;3.15;;
80536;SDS011;69867;47.074;15.404;2024-02-16T00:32:58;6.55;;;3.45;;
80536;SDS011;69867;47.074;15.404;2024-02-16T00:35:24;7.03;;;3.30;;
80536;SDS011;69867;47.074;15.404;2024-02-16T00:37:49;6.10;;;2.88;;
80536;SDS011;69867;47.074;15.404;2024-02-16T00:40:14;4.57;;;2.40;;
80536;SDS011;69867;47.074;15.404;2024-02-16T00:42:40;7.72;;;2.70;;
80536;SDS011;69867;47.074;15.404;2024-02-16T00:45:05;6.10;;;2.83;;
80536;SDS011;69867;47.074;15.404;2024-02-16T00:47:31;6.35;;;3.17;;
80536;SDS011;69867;47.074;15.404;2024-02-16T00:49:57;5.97;;;2.72;;
80536;SDS011;69867;47.074;15.404;2024-02-16T00:52:23;5.32;;;2.45;;
80536;SDS011;69867;47.074;15.404;2024-02-16T00:54:48;7.10;;;2.97;;
80536;SDS011;69867;47.074;15.404;2024-02-16T00:57:14;5.88;;;2.97;;
80536;SDS011;69867;47.074;15.404;2024-02-16T00:59:40;5.68;;;2.45;;
80536;SDS011;69867;47.074;15.404;2024-02-16T01:02:06;6.00;;;2.83;;
80536;SDS011;69867;47.074;15.404;2024-02-16T01:04:31;8.68;;;3.13;;
80536;SDS011;69867;47.074;15.404;2024-02-16T01:06:57;6.43;;;2.53;;
80536;SDS011;69867;47.074;15.404;2024-02-16T01:09:22;7.40;;;3.20;;
80536;SDS011;69867;47.074;15.404;2024-02-16T01:11:48;7.78;;;2.55;;
80536;SDS011;69867;47.074;15.404;2024-02-16T01:14:14;6.28;;;2.95;;
80536;SDS011;69867;47.074;15.404;2024-02-16T01:16:39;5.35;;;2.80;;
80536;SDS011;69867;47.074;15.404;2024-02-16T01:19:04;5.35;;;2.65;;
80536;SDS011;69867;47.074;15.404;2024-02-16T01:21:30;8.30;;;3.00;;
80536;SDS011;69867;47.074;15.404;2024-02-16T01:23:55;8.20;;;3.17;;
80536;SDS011;69867;47.074;15.404;2024-02-16T01:26:21;8.02;;;2.97;;
80536;SDS011;69867;47.074;15.404;2024-02-16T01:28:46;7.45;;;3.40;;
80536;SDS011;69867;47.074;15.404;2024-02-16T01:31:11;7.90;;;2.72;;
80536;SDS011;69867;47.074;15.404;2024-02-16T01:33:37;6.13;;;2.60;;
80536;SDS011;69867;47.074;15.404;2024-02-16T01:36:02;8.63;;;3.08;;
80536;SDS011;69867;47.074;15.404;2024-02-16T01:38:28;4.65;;;2.65;;
80536;SDS011;69867;47.074;15.404;2024-02-16T01:40:53;5.05;;;2.20;;
80536;SDS011;69867;47.074;15.404;2024-02-16T01:43:22;5.88;;;2.35;;
80536;SDS011;69867;47.074;15.404;2024-02-16T01:45:47;5.32;;;2.85;;
80536;SDS011;69867;47.074;15.404;2024-02-16T01:48:13;5.68;;;2.85;;
80536;SDS011;69867;47.074;15.404;2024-02-16T01:50:42;5.90;;;2.80;;
80536;SDS011;69867;47.074;15.404;2024-02-16T01:53:08;6.93;;;2.55;;
80536;SDS011;69867;47.074;15.404;2024-02-16T01:55:34;6.45;;;2.90;;
80536;SDS011;69867;47.074;15.404;2024-02-16T01:58:00;4.68;;;2.05;;
80536;SDS011;69867;47.074;15.404;2024-02-16T02:00:25;5.20;;;2.35;;
80536;SDS011;69867;47.074;15.404;2024-02-16T02:02:51;6.40;;;2.33;;
80536;SDS011;69867;47.074;15.404;2024-02-16T02:05:16;6.22;;;2.22;;
80536;SDS011;69867;47.074;15.404;2024-02-16T02:07:42;5.53;;;2.47;;
80536;SDS011;69867;47.074;15.404;2024-02-16T02:10:07;7.50;;;2.72;;
80536;SDS011;69867;47.074;15.404;2024-02-16T02:12:33;5.05;;;2.30;;
80536;SDS011;69867;47.074;15.404;2024-02-16T02:14:58;9.15;;;3.10;;
80536;SDS011;69867;47.074;15.404;2024-02-16T02:17:24;6.43;;;2.38;;
80536;SDS011;69867;47.074;15.404;2024-02-16T02:19:49;6.15;;;2.55;;
80536;SDS011;69867;47.074;15.404;2024-02-16T02:22:18;6.95;;;2.80;;
80536;SDS011;69867;47.074;15.404;2024-02-16T02:24:44;5.13;;;2.15;;
80536;SDS011;69867;47.074;15.404;2024-02-16T02:27:11;7.68;;;2.10;;
80536;SDS011;69867;47.074;15.404;2024-02-16T02:29:37;6.57;;;2.25;;
80536;SDS011;69867;47.074;15.404;2024-02-16T02:32:02;8.43;;;2.47;;
80536;SDS011;69867;47.074;15.404;2024-02-16T02:34:28;6.20;;;2.65;;
80536;SDS011;69867;47.074;15.404;2024-02-16T02:36:53;6.03;;;2.63;;
80536;SDS011;69867;47.074;15.404;2024-02-16T02:39:18;4.82;;;1.98;;
80536;SDS011;69867;47.074;15.404;2024-02-16T02:41:44;5.25;;;2.42;;
80536;SDS011;69867;47.074;15.404;2024-02-16T02:44:09;6.75;;;2.30;;
80536;SDS011;69867;47.074;15.404;2024-02-16T02:46:35;7.43;;;2.70;;
80536;SDS011;69867;47.074;15.404;2024-02-16T02:49:00;4.55;;;2.10;;
80536;SDS011;69867;47.074;15.404;2024-02-16T02:51:26;6.68;;;2.33;;
80536;SDS011;69867;47.074;15.404;2024-02-16T02:53:51;4.70;;;2.45;;
80536;SDS011;69867;47.074;15.404;2024-02-16T02:56:16;7.75;;;2.60;;
80536;SDS011;69867;47.074;15.404;2024-02-16T02:58:42;7.80;;;2.55;;
80536;SDS011;69867;47.074;15.404;2024-02-16T03:01:07;7.13;;;2.70;;
80536;SDS011;69867;47.074;15.404;2024-02-16T03:03:32;8.55;;;2.40;;
80536;SDS011;69867;47.074;15.404;2024-02-16T03:05:58;5.15;;;2.83;;
80536;SDS011;69867;47.074;15.404;2024-02-16T03:08:23;4.97;;;2.30;;
80536;SDS011;69867;47.074;15.404;2024-02-16T03:10:49;6.35;;;2.30;;
80536;SDS011;69867;47.074;15.404;2024-02-16T03:13:14;5.57;;;2.40;;
80536;SDS011;69867;47.074;15.404;2024-02-16T03:15:39;6.38;;;2.38;;
80536;SDS011;69867;47.074;15.404;2024-02-16T03:18:05;7.18;;;2.97;;
80536;SDS011;69867;47.074;15.404;2024-02-16T03:20:30;5.25;;;2.22;;
80536;SDS011;69867;47.074;15.404;2024-02-16T03:22:56;6.38;;;2.53;;
80536;SDS011;69867;47.074;15.404;2024-02-16T03:25:21;6.47;;;2.53;;
80536;SDS011;69867;47.074;15.404;2024-02-16T03:27:46;4.85;;;2.53;;
80536;SDS011;69867;47.074;15.404;2024-02-16T03:30:12;7.40;;;2.30;;
80536;SDS011;69867;47.074;15.404;2024-02-16T03:32:37;5.35;;;2.08;;
80536;SDS011;69867;47.074;15.404;2024-02-16T03:35:03;6.40;;;2.30;;
80536;SDS011;69867;47.074;15.404;2024-02-16T03:37:28;5.53;;;2.30;;
80536;SDS011;69867;47.074;15.404;2024-02-16T03:39:54;7.60;;;2.88;;
80536;SDS011;69867;47.074;15.404;2024-02-16T03:42:19;9.60;;;2.85;;
80536;SDS011;69867;47.074;15.404;2024-02-16T03:44:45;6.00;;;2.53;;
80536;SDS011;69867;47.074;15.404;2024-02-16T03:47:10;5.28;;;2.65;;
80536;SDS011;69867;47.074;15.404;2024-02-16T03:49:36;5.90;;;2.95;;
80536;SDS011;69867;47.074;15.404;2024-02-16T03:52:02;6.18;;;2.33;;
80536;SDS011;69867;47.074;15.404;2024-02-16T03:54:28;5.65;;;2.50;;
80536;SDS011;69867;47.074;15.404;2024-02-16T03:56:53;6.60;;;2.28;;
80536;SDS011;69867;47.074;15.404;2024-02-16T03:59:19;4.95;;;2.55;;
80536;SDS011;69867;47.074;15.404;2024-02-16T04:01:44;4.43;;;2.03;;
80536;SDS011;69867;47.074;15.404;2024-02-16T04:04:10;4.72;;;2.42;;
80536;SDS011;69867;47.074;15.404;2024-02-16T04:06:35;5.90;;;2.03;;
80536;SDS011;69867;47.074;15.404;2024-02-16T04:09:00;4.85;;;2.35;;
80536;SDS011;69867;47.074;15.404;2024-02-16T04:11:26;5.90;;;2.90;;
80536;SDS011;69867;47.074;15.404;2024-02-16T04:13:51;6.43;;;2.47;;
80536;SDS011;69867;47.074;15.404;2024-02-16T04:16:17;6.10;;;2.75;;
80536;SDS011;69867;47.074;15.404;2024-02-16T04:18:42;6.00;;;3.10;;
80536;SDS011;69867;47.074;15.404;2024-02-16T04:21:07;5.78;;;2.50;;
80536;SDS011;69867;47.074;15.404;2024-02-16T04:23:33;5.28;;;2.58;;
80536;SDS011;69867;47.074;15.404;2024-02-16T04:25:58;5.68;;;2.40;;
80536;SDS011;69867;47.074;15.404;2024-02-16T04:28:23;5.88;;;2.65;;
80536;SDS011;69867;47.074;15.404;2024-02-16T04:30:49;6.95;;;2.60;;
80536;SDS011;69867;47.074;15.404;2024-02-16T04:33:14;7.03;;;3.05;;
80536;SDS011;69867;47.074;15.404;2024-02-16T04:35:39;6.40;;;2.80;;
80536;SDS011;69867;47.074;15.404;2024-02-16T04:38:05;4.38;;;2.25;;
80536;SDS011;69867;47.074;15.404;2024-02-16T04:40:33;6.07;;;2.83;;
80536;SDS011;69867;47.074;15.404;2024-02-16T04:43:01;7.20;;;2.88;;
80536;SDS011;69867;47.074;15.404;2024-02-16T04:45:26;8.32;;;2.88;;
80536;SDS011;69867;47.074;15.404;2024-02-16T04:47:51;5.38;;;2.55;;
80536;SDS011;69867;47.074;15.404;2024-02-16T04:50:17;7.80;;;2.42;;
80536;SDS011;69867;47.074;15.404;2024-02-16T04:52:42;5.82;;;2.50;;
80536;SDS011;69867;47.074;15.404;2024-02-16T04:55:07;6.93;;;2.67;;
80536;SDS011;69867;47.074;15.404;2024-02-16T04:57:33;4.95;;;2.05;;
80536;SDS011;69867;47.074;15.404;2024-02-16T04:59:59;6.45;;;2.30;;
80536;SDS011;69867;47.074;15.404;2024-02-16T05:02:24;4.75;;;2.30;;
80536;SDS011;69867;47.074;15.404;2024-02-16T05:04:49;5.60;;;2.50;;
80536;SDS011;69867;47.074;15.404;2024-02-16T05:07:15;5.95;;;2.25;;
80536;SDS011;69867;47.074;15.404;2024-02-16T05:09:40;5.13;;;2.20;;
80536;SDS011;69867;47.074;15.404;2024-02-16T05:12:06;5.93;;;2.58;;
80536;SDS011;69867;47.074;15.404;2024-02-16T05:14:31;8.80;;;3.50;;
80536;SDS011;69867;47.074;15.404;2024-02-16T05:16:57;5.72;;;2.75;;
80536;SDS011;69867;47.074;15.404;2024-02-16T05:19:22;8.05;;;3.22;;
80536;SDS011;69867;47.074;15.404;2024-02-16T05:21:47;8.75;;;3.15;;
80536;SDS011;69867;47.074;15.404;2024-02-16T05:24:13;7.05;;;2.75;;
80536;SDS011;69867;47.074;15.404;2024-02-16T05:26:38;9.30;;;3.03;;
80536;SDS011;69867;47.074;15.404;2024-02-16T05:29:03;5.63;;;2.78;;
80536;SDS011;69867;47.074;15.404;2024-02-16T05:31:29;6.40;;;2.53;;
80536;SDS011;69867;47.074;15.404;2024-02-16T05:33:54;4.88;;;2.47;;
80536;SDS011;69867;47.074;15.404;2024-02-16T05:36:20;7.45;;;2.28;;
80536;SDS011;69867;47.074;15.404;2024-02-16T05:38:46;8.52;;;3.17;;
80536;SDS011;69867;47.074;15.404;2024-02-16T05:41:12;6.68;;;3.03;;
80536;SDS011;69867;47.074;15.404;2024-02-16T05:43:38;5.57;;;2.92;;
80536;SDS011;69867;47.074;15.404;2024-02-16T05:46:03;6.57;;;3.33;;
80536;SDS011;69867;47.074;15.404;2024-02-16T05:48:29;5.18;;;2.72;;
80536;SDS011;69867;47.074;15.404;2024-02-16T05:50:59;5.88;;;2.40;;
80536;SDS011;69867;47.074;15.404;2024-02-16T05:53:25;4.60;;;2.17;;
80536;SDS011;69867;47.074;15.404;2024-02-16T05:55:51;5.57;;;2.28;;
80536;SDS011;69867;47.074;15.404;2024-02-16T05:58:16;8.23;;;2.78;;
80536;SDS011;69867;47.074;15.404;2024-02-16T06:00:42;6.82;;;3.22;;
80536;SDS011;69867;47.074;15.404;2024-02-16T06:03:07;9.95;;;3.42;;
80536;SDS011;69867;47.074;15.404;2024-02-16T06:05:32;8.82;;;3.55;;
80536;SDS011;69867;47.074;15.404;2024-02-16T06:07:58;8.15;;;3.85;;
80536;SDS011;69867;47.074;15.404;2024-02-16T06:10:23;7.85;;;3.63;;
80536;SDS011;69867;47.074;15.404;2024-02-16T06:12:48;7.35;;;3.28;;
80536;SDS011;69867;47.074;15.404;2024-02-16T06:15:14;7.13;;;3.60;;
80536;SDS011;69867;47.074;15.404;2024-02-16T06:17:39;7.35;;;3.40;;
80536;SDS011;69867;47.074;15.404;2024-02-16T06:20:05;7.32;;;4.03;;
80536;SDS011;69867;47.074;15.404;2024-02-16T06:22:30;8.75;;;4.00;;
80536;SDS011;69867;47.074;15.404;2024-02-16T06:24:56;8.15;;;3.45;;
80536;SDS011;69867;47.074;15.404;2024-02-16T06:27:21;8.93;;;3.28;;
80536;SDS011;69867;47.074;15.404;2024-02-16T06:29:46;6.28;;;3.05;;
80536;SDS011;69867;47.074;15.404;2024-02-16T06:32:12;7.55;;;3.63;;
80536;SDS011;69867;47.074;15.404;2024-02-16T06:34:37;9.93;;;3.75;;
80536;SDS011;69867;47.074;15.404;2024-02-16T06:37:03;10.07;;;3.67;;
80536;SDS011;69867;47.074;15.404;2024-02-16T06:39:28;9.77;;;3.30;;
80536;SDS011;69867;47.074;15.404;2024-02-16T06:41:53;9.68;;;3.30;;
80536;SDS011;69867;47.074;15.404;2024-02-16T06:44:19;8.93;;;3.83;;
80536;SDS011;69867;47.074;15.404;2024-02-16T06:46:44;7.53;;;3.92;;
80536;SDS011;69867;47.074;15.404;2024-02-16T06:49:09;7.32;;;3.58;;
80536;SDS011;69867;47.074;15.404;2024-02-16T06:51:35;8.93;;;3.88;;
80536;SDS011;69867;47.074;15.404;2024-02-16T06:54:01;9.02;;;4.47;;
80536;SDS011;69867;47.074;15.404;2024-02-16T06:56:26;9.45;;;4.05;;
80536;SDS011;69867;47.074;15.404;2024-02-16T06:58:52;9.38;;;5.05;;
80536;SDS011;69867;47.074;15.404;2024-02-16T07:01:17;10.35;;;3.80;;
80536;SDS011;69867;47.074;15.404;2024-02-16T07:03:43;9.23;;;4.30;;
80536;SDS011;69867;47.074;15.404;2024-02-16T07:06:08;9.02;;;4.07;;
80536;SDS011;69867;47.074;15.404;2024-02-16T07:08:34;7.97;;;4.00;;
80536;SDS011;69867;47.074;15.404;2024-02-16T07:10:59;8.60;;;3.83;;
80536;SDS011;69867;47.074;15.404;2024-02-16T07:13:25;7.20;;;3.53;;
80536;SDS011;69867;47.074;15.404;2024-02-16T07:15:50;6.47;;;3.58;;
80536;SDS011;69867;47.074;15.404;2024-02-16T07:18:16;9.55;;;3.63;;
80536;SDS011;69867;47.074;15.404;2024-02-16T07:20:41;10.57;;;4.22;;
80536;SDS011;69867;47.074;15.404;2024-02-16T07:23:06;13.63;;;5.07;;
80536;SDS011;69867;47.074;15.404;2024-02-16T07:25:32;12.25;;;5.55;;
80536;SDS011;69867;47.074;15.404;2024-02-16T07:27:57;10.15;;;4.70;;
80536;SDS011;69867;47.074;15.404;2024-02-16T07:30:23;9.00;;;4.45;;
80536;SDS011;69867;47.074;15.404;2024-02-16T07:32:51;11.02;;;4.65;;
80536;SDS011;69867;47.074;15.404;2024-02-16T07:35:16;7.68;;;4.47;;
80536;SDS011;69867;47.074;15.404;2024-02-16T07:37:42;8.32;;;4.32;;
80536;SDS011;69867;47.074;15.404;2024-02-16T07:40:07;7.97;;;4.15;;
80536;SDS011;69867;47.074;15.404;2024-02-16T07:42:33;11.30;;;4.18;;
80536;SDS011;69867;47.074;15.404;2024-02-16T07:44:58;12.45;;;4.35;;
80536;SDS011;69867;47.074;15.404;2024-02-16T07:47:24;10.52;;;4.22;;
80536;SDS011;69867;47.074;15.404;2024-02-16T07:49:49;9.70;;;4.20;;
80536;SDS011;69867;47.074;15.404;2024-02-16T07:52:14;8.23;;;4.18;;
80536;SDS011;69867;47.074;15.404;2024-02-16T07:54:40;9.60;;;5.07;;
80536;SDS011;69867;47.074;15.404;2024-02-16T07:57:06;11.10;;;4.90;;
80536;SDS011;69867;47.074;15.404;2024-02-16T07:59:31;10.32;;;4.60;;
80536;SDS011;69867;47.074;15.404;2024-02-16T08:01:56;9.90;;;5.00;;
80536;SDS011;69867;47.074;15.404;2024-02-16T08:04:22;9.48;;;4.07;;
80536;SDS011;69867;47.074;15.404;2024-02-16T08:06:47;9.35;;;4.25;;
80536;SDS011;69867;47.074;15.404;2024-02-16T08:09:13;10.02;;;4.05;;
80536;SDS011;69867;47.074;15.404;2024-02-16T08:11:38;7.82;;;3.97;;
80536;SDS011;69867;47.074;15.404;2024-02-16T08:14:03;10.88;;;4.63;;
80536;SDS011;69867;47.074;15.404;2024-02-16T08:16:29;10.23;;;4.20;;
80536;SDS011;69867;47.074;15.404;2024-02-16T08:18:54;10.45;;;4.50;;
80536;SDS011;69867;47.074;15.404;2024-02-16T08:21:20;7.18;;;3.25;;
80536;SDS011;69867;47.074;15.404;2024-02-16T08:23:48;6.75;;;3.42;;
80536;SDS011;69867;47.074;15.404;2024-02-16T08:26:13;9.23;;;4.18;;
80536;SDS011;69867;47.074;15.404;2024-02-16T08:28:39;8.18;;;4.18;;
80536;SDS011;69867;47.074;15.404;2024-02-16T08:31:05;8.15;;;3.75;;
80536;SDS011;69867;47.074;15.404;2024-02-16T08:33:30;8.48;;;4.57;;
80536;SDS011;69867;47.074;15.404;2024-02-16T08:35:55;11.57;;;5.45;;
80536;SDS011;69867;47.074;15.404;2024-02-16T08:38:21;8.73;;;4.60;;
80536;SDS011;69867;47.074;15.404;2024-02-16T08:40:46;8.25;;;4.30;;
80536;SDS011;69867;47.074;15.404;2024-02-16T08:43:11;8.57;;;4.28;;
80536;SDS011;69867;47.074;15.404;2024-02-16T08:45:37;7.13;;;4.13;;
80536;SDS011;69867;47.074;15.404;2024-02-16T08:48:02;8.18;;;4.18;;
80536;SDS011;69867;47.074;15.404;2024-02-16T08:50:28;7.30;;;4.10;;
80536;SDS011;69867;47.074;15.404;2024-02-16T08:52:53;7.88;;;4.18;;
80536;SDS011;69867;47.074;15.404;2024-02-16T08:55:19;7.43;;;4.13;;
80536;SDS011;69867;47.074;15.404;2024-02-16T08:57:44;9.13;;;4.47;;
80536;SDS011;69867;47.074;15.404;2024-02-16T09:00:09;8.80;;;4.05;;
80536;SDS011;69867;47.074;15.404;2024-02-16T09:02:35;11.32;;;3.85;;
80536;SDS011;69867;47.074;15.404;2024-02-16T09:05:01;8.98;;;4.13;;
80536;SDS011;69867;47.074;15.404;2024-02-16T09:07:26;9.25;;;4.20;;
80536;SDS011;69867;47.074;15.404;2024-02-16T09:09:51;8.70;;;4.63;;
80536;SDS011;69867;47.074;15.404;2024-02-16T09:12:18;8.27;;;3.70;;
80536;SDS011;69867;47.074;15.404;2024-02-16T09:14:43;8.88;;;4.18;;
80536;SDS011;69867;47.074;15.404;2024-02-16T09:17:08;8.05;;;4.22;;
80536;SDS011;69867;47.074;15.404;2024-02-16T09:19:34;8.80;;;3.90;;
80536;SDS011;69867;47.074;15.404;2024-02-16T09:21:59;9.10;;;3.97;;
80536;SDS011;69867;47.074;15.404;2024-02-16T09:24:25;6.93;;;3.85;;
80536;SDS011;69867;47.074;15.404;2024-02-16T09:26:50;7.78;;;3.75;;
80536;SDS011;69867;47.074;15.404;2024-02-16T09:29:15;7.78;;;4.07;;
80536;SDS011;69867;47.074;15.404;2024-02-16T09:31:41;9.43;;;4.18;;
80536;SDS011;69867;47.074;15.404;2024-02-16T09:34:06;6.13;;;3.60;;
80536;SDS011;69867;47.074;15.404;2024-02-16T09:36:32;8.65;;;4.15;;
80536;SDS011;69867;47.074;15.404;2024-02-16T09:38:57;11.65;;;5.50;;
80536;SDS011;69867;47.074;15.404;2024-02-16T09:41:23;9.57;;;6.05;;
80536;SDS011;69867;47.074;15.404;2024-02-16T09:43:48;9.52;;;5.28;;
80536;SDS011;69867;47.074;15.404;2024-02-16T09:46:13;10.20;;;5.30;;
80536;SDS011;69867;47.074;15.404;2024-02-16T09:48:40;9.23;;;4.90;;
80536;SDS011;69867;47.074;15.404;2024-02-16T09:51:06;7.90;;;4.78;;
80536;SDS011;69867;47.074;15.404;2024-02-16T09:53:33;10.65;;;5.20;;
80536;SDS011;69867;47.074;15.404;2024-02-16T09:55:58;11.52;;;5.50;;
80536;SDS011;69867;47.074;15.404;2024-02-16T09:58:23;11.07;;;6.15;;
80536;SDS011;69867;47.074;15.404;2024-02-16T10:00:52;9.55;;;5.60;;
80536;SDS011;69867;47.074;15.404;2024-02-16T10:03:36;12.98;;;5.85;;
80536;SDS011;69867;47.074;15.404;2024-02-16T10:08:31;10.23;;;5.80;;
80536;SDS011;69867;47.074;15.404;2024-02-16T10:11:05;9.63;;;5.25;;
80536;SDS011;69867;47.074;15.404;2024-02-16T10:13:31;10.13;;;6.07;;
80536;SDS011;69867;47.074;15.404;2024-02-16T10:16:07;10.40;;;5.55;;
80536;SDS011;69867;47.074;15.404;2024-02-16T10:18:35;8.98;;;4.95;;
80536;SDS011;69867;47.074;15.404;2024-02-16T10:21:01;9.18;;;6.07;;
80536;SDS011;69867;47.074;15.404;2024-02-16T10:23:26;12.30;;;6.13;;
80536;SDS011;69867;47.074;15.404;2024-02-16T10:25:52;11.40;;;6.28;;
80536;SDS011;69867;47.074;15.404;2024-02-16T10:28:19;13.05;;;6.47;;
80536;SDS011;69867;47.074;15.404;2024-02-16T10:30:45;9.07;;;6.20;;
80536;SDS011;69867;47.074;15.404;2024-02-16T10:33:12;9.27;;;5.35;;
80536;SDS011;69867;47.074;15.404;2024-02-16T10:35:37;14.13;;;6.93;;
80536;SDS011;69867;47.074;15.404;2024-02-16T10:38:04;10.80;;;7.05;;
80536;SDS011;69867;47.074;15.404;2024-02-16T10:40:37;10.38;;;6.22;;
80536;SDS011;69867;47.074;15.404;2024-02-16T10:43:04;14.23;;;7.13;;
80536;SDS011;69867;47.074;15.404;2024-02-16T10:45:32;13.35;;;7.07;;
80536;SDS011;69867;47.074;15.404;2024-02-16T10:47:58;12.35;;;7.13;;
80536;SDS011;69867;47.074;15.404;2024-02-16T10:50:24;11.82;;;7.03;;
80536;SDS011;69867;47.074;15.404;2024-02-16T10:52:50;10.82;;;6.70;;
80536;SDS011;69867;47.074;15.404;2024-02-16T10:55:18;14.50;;;7.55;;
80536;SDS011;69867;47.074;15.404;2024-02-16T10:57:44;10.60;;;6.45;;
80536;SDS011;69867;47.074;15.404;2024-02-16T11:00:10;13.93;;;7.18;;
80536;SDS011;69867;47.074;15.404;2024-02-16T11:08:05;13.15;;;6.93;;
80536;SDS011;69867;47.074;15.404;2024-02-16T11:11:01;12.18;;;7.05;;
80536;SDS011;69867;47.074;15.404;2024-02-16T11:13:28;11.15;;;6.93;;
80536;SDS011;69867;47.074;15.404;2024-02-16T11:15:57;11.18;;;6.53;;
80536;SDS011;69867;47.074;15.404;2024-02-16T11:18:24;12.52;;;7.25;;
80536;SDS011;69867;47.074;15.404;2024-02-16T11:20:49;8.57;;;6.05;;
80536;SDS011;69867;47.074;15.404;2024-02-16T11:23:15;10.68;;;6.70;;
80536;SDS011;69867;47.074;15.404;2024-02-16T11:25:49;13.48;;;6.63;;
80536;SDS011;69867;47.074;15.404;2024-02-16T11:28:15;10.98;;;6.72;;
80536;SDS011;69867;47.074;15.404;2024-02-16T11:30:42;11.73;;;7.03;;
80536;SDS011;69867;47.074;15.404;2024-02-16T11:33:10;12.18;;;6.47;;
80536;SDS011;69867;47.074;15.404;2024-02-16T11:35:36;9.02;;;5.97;;
80536;SDS011;69867;47.074;15.404;2024-02-16T11:38:01;11.50;;;5.80;;
80536;SDS011;69867;47.074;15.404;2024-02-16T11:40:26;10.30;;;5.82;;
80536;SDS011;69867;47.074;15.404;2024-02-16T11:43:01;11.98;;;6.05;;
80536;SDS011;69867;47.074;15.404;2024-02-16T11:45:26;12.15;;;6.03;;
80536;SDS011;69867;47.074;15.404;2024-02-16T11:48:02;12.90;;;6.50;;
80536;SDS011;69867;47.074;15.404;2024-02-16T11:50:31;10.90;;;6.38;;
80536;SDS011;69867;47.074;15.404;2024-02-16T11:52:57;9.15;;;6.15;;
80536;SDS011;69867;47.074;15.404;2024-02-16T11:55:22;14.23;;;6.47;;
80536;SDS011;69867;47.074;15.404;2024-02-16T11:57:48;11.40;;;6.03;;
80536;SDS011;69867;47.074;15.404;2024-02-16T12:00:13;11.63;;;6.53;;
80536;SDS011;69867;47.074;15.404;2024-02-16T12:02:39;12.15;;;6.15;;
80536;SDS011;69867;47.074;15.404;2024-02-16T12:05:05;12.63;;;7.10;;
80536;SDS011;69867;47.074;15.404;2024-02-16T12:07:30;13.50;;;8.02;;
80536;SDS011;69867;47.074;15.404;2024-02-16T12:09:59;11.18;;;6.55;;
80536;SDS011;69867;47.074;15.404;2024-02-16T12:12:27;11.77;;;6.30;;
80536;SDS011;69867;47.074;15.404;2024-02-16T12:14:52;11.02;;;6.32;;
80536;SDS011;69867;47.074;15.404;2024-02-16T12:17:19;9.93;;;6.35;;
80536;SDS011;69867;47.074;15.404;2024-02-16T12:19:45;10.35;;;6.55;;
80536;SDS011;69867;47.074;15.404;2024-02-16T12:22:11;9.60;;;5.68;;
80536;SDS011;69867;47.074;15.404;2024-02-16T12:24:47;11.43;;;6.30;;
80536;SDS011;69867;47.074;15.404;2024-02-16T12:27:13;10.02;;;5.88;;
80536;SDS011;69867;47.074;15.404;2024-02-16T12:29:39;10.25;;;7.30;;
80536;SDS011;69867;47.074;15.404;2024-02-16T12:32:04;10.45;;;6.45;;
80536;SDS011;69867;47.074;15.404;2024-02-16T12:34:30;11.93;;;6.57;;
80536;SDS011;69867;47.074;15.404;2024-02-16T12:36:55;10.05;;;5.53;;
80536;SDS011;69867;47.074;15.404;2024-02-16T12:39:21;15.45;;;6.40;;
80536;SDS011;69867;47.074;15.404;2024-02-16T12:41:46;8.15;;;5.75;;
80536;SDS011;69867;47.074;15.404;2024-02-16T12:44:12;12.55;;;5.70;;
80536;SDS011;69867;47.074;15.404;2024-02-16T12:46:37;10.77;;;5.70;;
80536;SDS011;69867;47.074;15.404;2024-02-16T12:49:02;9.85;;;6.07;;
80536;SDS011;69867;47.074;15.404;2024-02-16T12:51:28;8.52;;;5.57;;
80536;SDS011;69867;47.074;15.404;2024-02-16T12:53:53;8.38;;;5.10;;
80536;SDS011;69867;47.074;15.404;2024-02-16T12:56:18;12.38;;;5.65;;
80536;SDS011;69867;47.074;15.404;2024-02-16T12:58:44;8.40;;;5.22;;
80536;SDS011;69867;47.074;15.404;2024-02-16T13:01:09;8.15;;;4.80;;
80536;SDS011;69867;47.074;15.404;2024-02-16T13:03:35;9.60;;;4.82;;
80536;SDS011;69867;47.074;15.404;2024-02-16T13:06:01;9.32;;;5.25;;
80536;SDS011;69867;47.074;15.404;2024-02-16T13:08:27;8.23;;;5.10;;
80536;SDS011;69867;47.074;15.404;2024-02-16T13:10:53;7.95;;;4.72;;
80536;SDS011;69867;47.074;15.404;2024-02-16T13:13:18;8.45;;;4.57;;
80536;SDS011;69867;47.074;15.404;2024-02-16T13:15:44;8.10;;;4.70;;
80536;SDS011;69867;47.074;15.404;2024-02-16T13:18:09;8.25;;;4.63;;
80536;SDS011;69867;47.074;15.404;2024-02-16T13:20:35;12.00;;;5.90;;
80536;SDS011;69867;47.074;15.404;2024-02-16T13:23:00;7.93;;;5.22;;
80536;SDS011;69867;47.074;15.404;2024-02-16T13:25:26;10.80;;;5.38;;
80536;SDS011;69867;47.074;15.404;2024-02-16T13:27:51;8.95;;;5.22;;
80536;SDS011;69867;47.074;15.404;2024-02-16T13:30:17;7.53;;;4.80;;
80536;SDS011;69867;47.074;15.404;2024-02-16T13:32:42;8.38;;;4.75;;
80536;SDS011;69867;47.074;15.404;2024-02-16T13:35:07;9.82;;;5.22;;
80536;SDS011;69867;47.074;15.404;2024-02-16T13:37:33;9.05;;;4.72;;
80536;SDS011;69867;47.074;15.404;2024-02-16T13:39:58;7.95;;;4.53;;
80536;SDS011;69867;47.074;15.404;2024-02-16T13:42:24;7.97;;;5.10;;
80536;SDS011;69867;47.074;15.404;2024-02-16T13:44:49;10.93;;;5.45;;
80536;SDS011;69867;47.074;15.404;2024-02-16T13:47:14;8.32;;;4.90;;
80536;SDS011;69867;47.074;15.404;2024-02-16T13:49:40;10.00;;;5.63;;
80536;SDS011;69867;47.074;15.404;2024-02-16T13:52:05;7.47;;;4.82;;
80536;SDS011;69867;47.074;15.404;2024-02-16T13:54:31;8.27;;;5.18;;
80536;SDS011;69867;47.074;15.404;2024-02-16T13:56:56;7.30;;;4.30;;
80536;SDS011;69867;47.074;15.404;2024-02-16T13:59:22;10.88;;;4.70;;
80536;SDS011;69867;47.074;15.404;2024-02-16T14:01:47;12.48;;;5.40;;
80536;SDS011;69867;47.074;15.404;2024-02-16T14:04:13;8.95;;;5.32;;
80536;SDS011;69867;47.074;15.404;2024-02-16T14:06:39;9.48;;;5.70;;
80536;SDS011;69867;47.074;15.404;2024-02-16T14:09:04;10.95;;;5.72;;
80536;SDS011;69867;47.074;15.404;2024-02-16T14:11:29;9.68;;;5.25;;
80536;SDS011;69867;47.074;15.404;2024-02-16T14:13:55;12.05;;;6.07;;
80536;SDS011;69867;47.074;15.404;2024-02-16T14:16:20;9.48;;;5.38;;
80536;SDS011;69867;47.074;15.404;2024-02-16T14:18:45;10.45;;;6.63;;
80536;SDS011;69867;47.074;15.404;2024-02-16T14:21:11;9.80;;;5.20;;
80536;SDS011;69867;47.074;15.404;2024-02-16T14:23:36;9.32;;;6.07;;
80536;SDS011;69867;47.074;15.404;2024-02-16T14:26:02;8.60;;;5.63;;
80536;SDS011;69867;47.074;15.404;2024-02-16T14:28:27;10.30;;;5.95;;
80536;SDS011;69867;47.074;15.404;2024-02-16T14:30:52;7.90;;;5.43;;